sensor_id;sensor_type;location;lat;lon;timestamp;pressure;altitude;pressure_sealevel;temperature;humidity
9935;BME280;5006;41.828;23.478;2023-05-07T00:00:55;90545.31;;;18.38;47.66
9935;BME280;5006;41.828;23.478;2023-05-07T00:02:01;90537.59;;;18.65;47.67
9935;BME280;5006;41.828;23.478;2023-05-07T00:03:08;90540.00;;;18.03;48.05
9935;BME280;5006;41.828;23.478;2023-05-07T00:04:15;90536.09;;;18.04;48.95
9935;BME280;5006;41.828;23.478;2023-05-07T00:05:22;90540.00;;;18.03;48.65
9935;BME280;5006;41.828;23.478;2023-05-07T00:06:28;90541.34;;;17.95;48.47
9935;BME280;5006;41.828;23.478;2023-05-07T00:07:33;90535.63;;;18.05;48.51
9935;BME280;5006;41.828;23.478;2023-05-07T00:08:39;90535.06;;;18.14;48.19
9935;BME280;5006;41.828;23.478;2023-05-07T00:09:45;90530.06;;;17.96;48.19
9935;BME280;5006;41.828;23.478;2023-05-07T00:10:50;90528.53;;;17.63;49.26
9935;BME280;5006;41.828;23.478;2023-05-07T00:11:55;90534.88;;;18.21;47.69
9935;BME280;5006;41.828;23.478;2023-05-07T00:13:01;90532.56;;;18.19;47.85
9935;BME280;5006;41.828;23.478;2023-05-07T00:14:06;90525.81;;;18.11;48.00
9935;BME280;5006;41.828;23.478;2023-05-07T00:15:12;90524.84;;;18.34;47.31
9935;BME280;5006;41.828;23.478;2023-05-07T00:16:18;90530.94;;;18.38;47.16
9935;BME280;5006;41.828;23.478;2023-05-07T00:17:24;90535.66;;;18.66;47.05
9935;BME280;5006;41.828;23.478;2023-05-07T00:18:29;90527.13;;;18.64;46.60
9935;BME280;5006;41.828;23.478;2023-05-07T00:19:35;90533.22;;;18.96;46.83
9935;BME280;5006;41.828;23.478;2023-05-07T00:20:42;90532.53;;;18.80;46.80
9935;BME280;5006;41.828;23.478;2023-05-07T00:21:47;90533.38;;;18.77;46.91
9935;BME280;5006;41.828;23.478;2023-05-07T00:22:52;90532.47;;;18.67;46.69
9935;BME280;5006;41.828;23.478;2023-05-07T00:23:58;90537.16;;;19.08;46.18
9935;BME280;5006;41.828;23.478;2023-05-07T00:25:04;90535.94;;;18.96;45.88
9935;BME280;5006;41.828;23.478;2023-05-07T00:26:11;90544.44;;;18.70;46.69
9935;BME280;5006;41.828;23.478;2023-05-07T00:27:16;90539.06;;;19.23;46.03
9935;BME280;5006;41.828;23.478;2023-05-07T00:28:22;90538.50;;;19.16;46.94
9935;BME280;5006;41.828;23.478;2023-05-07T00:29:27;90540.97;;;19.10;46.50
9935;BME280;5006;41.828;23.478;2023-05-07T00:30:33;90543.41;;;18.80;47.98
9935;BME280;5006;41.828;23.478;2023-05-07T00:31:38;90545.16;;;19.27;47.35
9935;BME280;5006;41.828;23.478;2023-05-07T00:32:44;90540.41;;;19.69;47.09
9935;BME280;5006;41.828;23.478;2023-05-07T00:33:50;90536.25;;;19.89;46.08
9935;BME280;5006;41.828;23.478;2023-05-07T00:34:56;90538.09;;;19.30;47.55
9935;BME280;5006;41.828;23.478;2023-05-07T00:36:03;90539.09;;;19.61;47.66
9935;BME280;5006;41.828;23.478;2023-05-07T00:37:09;90542.13;;;19.38;47.72
9935;BME280;5006;41.828;23.478;2023-05-07T00:38:15;90540.72;;;19.71;47.20
9935;BME280;5006;41.828;23.478;2023-05-07T00:39:21;90543.16;;;19.15;48.13
9935;BME280;5006;41.828;23.478;2023-05-07T00:40:26;90540.63;;;18.67;49.12
9935;BME280;5006;41.828;23.478;2023-05-07T00:41:32;90542.38;;;19.15;47.90
9935;BME280;5006;41.828;23.478;2023-05-07T00:42:37;90543.13;;;19.44;46.85
9935;BME280;5006;41.828;23.478;2023-05-07T00:43:43;90542.25;;;19.47;46.49
9935;BME280;5006;41.828;23.478;2023-05-07T00:44:49;90544.06;;;19.25;47.25
9935;BME280;5006;41.828;23.478;2023-05-07T00:45:55;90540.69;;;19.21;47.97
9935;BME280;5006;41.828;23.478;2023-05-07T00:47:03;90545.09;;;19.02;47.23
9935;BME280;5006;41.828;23.478;2023-05-07T00:48:11;90546.41;;;18.69;48.32
9935;BME280;5006;41.828;23.478;2023-05-07T00:49:18;90540.16;;;18.56;48.49
9935;BME280;5006;41.828;23.478;2023-05-07T00:50:25;90547.34;;;18.63;47.92
9935;BME280;5006;41.828;23.478;2023-05-07T00:51:33;90543.78;;;18.66;48.53
9935;BME280;5006;41.828;23.478;2023-05-07T00:52:39;90550.44;;;18.77;48.85
9935;BME280;5006;41.828;23.478;2023-05-07T00:53:46;90548.94;;;18.76;48.53
9935;BME280;5006;41.828;23.478;2023-05-07T00:54:52;90549.69;;;18.77;48.24
9935;BME280;5006;41.828;23.478;2023-05-07T00:55:58;90560.44;;;18.07;48.96
9935;BME280;5006;41.828;23.478;2023-05-07T00:57:05;90548.53;;;18.17;48.99
9935;BME280;5006;41.828;23.478;2023-05-07T00:58:11;90547.31;;;18.79;47.85
9935;BME280;5006;41.828;23.478;2023-05-07T00:59:18;90549.72;;;18.32;48.28
9935;BME280;5006;41.828;23.478;2023-05-07T01:00:23;90545.09;;;18.01;48.76
9935;BME280;5006;41.828;23.478;2023-05-07T01:01:29;90552.22;;;17.63;49.17
9935;BME280;5006;41.828;23.478;2023-05-07T01:02:34;90545.66;;;17.45;49.68
9935;BME280;5006;41.828;23.478;2023-05-07T01:03:40;90549.47;;;17.47;49.49
9935;BME280;5006;41.828;23.478;2023-05-07T01:04:45;90551.34;;;18.14;48.73
9935;BME280;5006;41.828;23.478;2023-05-07T01:05:52;90542.47;;;18.26;48.33
9935;BME280;5006;41.828;23.478;2023-05-07T01:07:00;90540.94;;;18.57;47.27
9935;BME280;5006;41.828;23.478;2023-05-07T01:08:07;90544.47;;;18.09;48.39
9935;BME280;5006;41.828;23.478;2023-05-07T01:09:14;90543.78;;;18.37;48.09
9935;BME280;5006;41.828;23.478;2023-05-07T01:10:21;90543.00;;;18.94;46.89
9935;BME280;5006;41.828;23.478;2023-05-07T01:11:26;90548.09;;;18.35;48.11
9935;BME280;5006;41.828;23.478;2023-05-07T01:12:33;90543.59;;;18.73;47.02
9935;BME280;5006;41.828;23.478;2023-05-07T01:13:39;90541.81;;;18.66;46.80
9935;BME280;5006;41.828;23.478;2023-05-07T01:14:45;90548.28;;;17.48;49.19
9935;BME280;5006;41.828;23.478;2023-05-07T01:15:50;90546.72;;;16.76;51.24
9935;BME280;5006;41.828;23.478;2023-05-07T01:16:56;90556.38;;;16.77;51.43
9935;BME280;5006;41.828;23.478;2023-05-07T01:18:03;90549.66;;;17.21;50.31
9935;BME280;5006;41.828;23.478;2023-05-07T01:19:14;90553.19;;;17.37;49.61
9935;BME280;5006;41.828;23.478;2023-05-07T01:20:22;90554.28;;;17.55;49.27
9935;BME280;5006;41.828;23.478;2023-05-07T01:21:33;90550.84;;;17.20;49.52
9935;BME280;5006;41.828;23.478;2023-05-07T01:22:40;90549.31;;;17.19;50.16
9935;BME280;5006;41.828;23.478;2023-05-07T01:23:47;90551.25;;;17.53;49.05
9935;BME280;5006;41.828;23.478;2023-05-07T01:24:52;90549.59;;;17.24;49.59
9935;BME280;5006;41.828;23.478;2023-05-07T01:26:00;90546.16;;;17.55;49.52
9935;BME280;5006;41.828;23.478;2023-05-07T01:27:07;90544.63;;;17.54;49.56
9935;BME280;5006;41.828;23.478;2023-05-07T01:28:15;90541.31;;;17.47;49.73
9935;BME280;5006;41.828;23.478;2023-05-07T01:29:21;90538.94;;;16.78;51.00
9935;BME280;5006;41.828;23.478;2023-05-07T01:30:28;90539.78;;;16.75;51.26
9935;BME280;5006;41.828;23.478;2023-05-07T01:31:34;90539.44;;;16.93;51.38
9935;BME280;5006;41.828;23.478;2023-05-07T01:32:45;90538.09;;;17.36;50.40
9935;BME280;5006;41.828;23.478;2023-05-07T01:33:52;90535.09;;;17.50;50.33
9935;BME280;5006;41.828;23.478;2023-05-07T01:35:00;90536.03;;;17.05;50.30
9935;BME280;5006;41.828;23.478;2023-05-07T01:36:06;90539.47;;;17.44;49.85
9935;BME280;5006;41.828;23.478;2023-05-07T01:37:14;90531.69;;;17.27;49.84
9935;BME280;5006;41.828;23.478;2023-05-07T01:38:21;90535.00;;;17.85;48.92
9935;BME280;5006;41.828;23.478;2023-05-07T01:39:29;90532.47;;;17.94;48.43
9935;BME280;5006;41.828;23.478;2023-05-07T01:40:34;90523.38;;;17.53;49.57
9935;BME280;5006;41.828;23.478;2023-05-07T01:41:40;90531.84;;;17.55;49.24
9935;BME280;5006;41.828;23.478;2023-05-07T01:42:47;90532.53;;;17.75;48.72
9935;BME280;5006;41.828;23.478;2023-05-07T01:43:54;90528.41;;;16.64;50.04
9935;BME280;5006;41.828;23.478;2023-05-07T01:45:00;90528.63;;;16.31;51.66
9935;BME280;5006;41.828;23.478;2023-05-07T01:46:06;90525.19;;;16.07;52.45
9935;BME280;5006;41.828;23.478;2023-05-07T01:47:16;90529.31;;;16.15;52.47
9935;BME280;5006;41.828;23.478;2023-05-07T01:48:23;90540.03;;;16.22;53.01
9935;BME280;5006;41.828;23.478;2023-05-07T01:49:28;90533.91;;;16.96;51.54
9935;BME280;5006;41.828;23.478;2023-05-07T01:50:36;90537.75;;;16.79;52.31
9935;BME280;5006;41.828;23.478;2023-05-07T01:51:41;90537.91;;;17.27;50.89
9935;BME280;5006;41.828;23.478;2023-05-07T01:52:50;90543.13;;;17.18;50.93
9935;BME280;5006;41.828;23.478;2023-05-07T01:53:57;90541.25;;;16.80;51.95
9935;BME280;5006;41.828;23.478;2023-05-07T01:55:05;90532.94;;;17.22;51.98
9935;BME280;5006;41.828;23.478;2023-05-07T01:56:10;90539.44;;;18.40;49.85
9935;BME280;5006;41.828;23.478;2023-05-07T01:57:18;90530.00;;;18.73;48.50
9935;BME280;5006;41.828;23.478;2023-05-07T01:58:23;90525.13;;;18.80;47.74
9935;BME280;5006;41.828;23.478;2023-05-07T01:59:30;90532.78;;;19.64;46.02
9935;BME280;5006;41.828;23.478;2023-05-07T02:00:34;90529.56;;;20.27;45.40
9935;BME280;5006;41.828;23.478;2023-05-07T02:01:40;90534.13;;;17.41;49.55
9935;BME280;5006;41.828;23.478;2023-05-07T02:02:45;90530.38;;;16.99;51.08
9935;BME280;5006;41.828;23.478;2023-05-07T02:04:06;90532.19;;;17.06;50.75
9935;BME280;5006;41.828;23.478;2023-05-07T02:05:11;90533.09;;;16.99;51.30
9935;BME280;5006;41.828;23.478;2023-05-07T02:06:18;90536.72;;;16.73;52.26
9935;BME280;5006;41.828;23.478;2023-05-07T02:07:23;90529.75;;;16.92;52.15
9935;BME280;5006;41.828;23.478;2023-05-07T02:08:29;90535.06;;;17.15;51.68
9935;BME280;5006;41.828;23.478;2023-05-07T02:09:36;90535.59;;;16.90;51.70
9935;BME280;5006;41.828;23.478;2023-05-07T02:10:43;90526.97;;;16.95;51.75
9935;BME280;5006;41.828;23.478;2023-05-07T02:11:49;90530.75;;;16.82;51.87
9935;BME280;5006;41.828;23.478;2023-05-07T02:12:57;90524.38;;;17.08;51.45
9935;BME280;5006;41.828;23.478;2023-05-07T02:14:04;90529.28;;;16.38;51.59
9935;BME280;5006;41.828;23.478;2023-05-07T02:15:10;90521.59;;;16.37;51.47
9935;BME280;5006;41.828;23.478;2023-05-07T02:16:15;90521.94;;;15.96;53.26
9935;BME280;5006;41.828;23.478;2023-05-07T02:17:21;90525.78;;;16.18;53.09
9935;BME280;5006;41.828;23.478;2023-05-07T02:18:27;90515.78;;;16.15;52.70
9935;BME280;5006;41.828;23.478;2023-05-07T02:19:33;90524.56;;;16.62;52.15
9935;BME280;5006;41.828;23.478;2023-05-07T02:20:38;90517.56;;;16.64;51.65
9935;BME280;5006;41.828;23.478;2023-05-07T02:21:44;90522.09;;;16.51;51.38
9935;BME280;5006;41.828;23.478;2023-05-07T02:22:49;90519.50;;;16.64;52.67
9935;BME280;5006;41.828;23.478;2023-05-07T02:23:56;90522.34;;;16.76;51.37
9935;BME280;5006;41.828;23.478;2023-05-07T02:25:01;90515.84;;;18.37;50.01
9935;BME280;5006;41.828;23.478;2023-05-07T02:26:07;90522.72;;;18.70;49.38
9935;BME280;5006;41.828;23.478;2023-05-07T02:27:12;90515.03;;;18.81;48.91
9935;BME280;5006;41.828;23.478;2023-05-07T02:28:18;90514.53;;;18.98;48.06
9935;BME280;5006;41.828;23.478;2023-05-07T02:29:39;90517.28;;;18.70;48.55
9935;BME280;5006;41.828;23.478;2023-05-07T02:30:45;90514.66;;;18.22;48.90
9935;BME280;5006;41.828;23.478;2023-05-07T02:31:50;90518.66;;;18.17;49.62
9935;BME280;5006;41.828;23.478;2023-05-07T02:32:57;90515.59;;;18.31;49.52
9935;BME280;5006;41.828;23.478;2023-05-07T02:34:02;90524.31;;;18.39;48.98
9935;BME280;5006;41.828;23.478;2023-05-07T02:35:10;90525.59;;;17.90;49.56
9935;BME280;5006;41.828;23.478;2023-05-07T02:36:15;90526.25;;;17.62;50.32
9935;BME280;5006;41.828;23.478;2023-05-07T02:37:30;90524.25;;;18.26;48.59
9935;BME280;5006;41.828;23.478;2023-05-07T02:38:35;90523.50;;;18.10;49.24
9935;BME280;5006;41.828;23.478;2023-05-07T02:39:42;90525.06;;;17.47;49.87
9935;BME280;5006;41.828;23.478;2023-05-07T02:40:49;90527.69;;;17.50;50.71
9935;BME280;5006;41.828;23.478;2023-05-07T02:41:54;90529.38;;;18.08;49.23
9935;BME280;5006;41.828;23.478;2023-05-07T02:42:59;90522.09;;;17.42;50.24
9935;BME280;5006;41.828;23.478;2023-05-07T02:44:05;90527.81;;;17.28;50.54
9935;BME280;5006;41.828;23.478;2023-05-07T02:45:11;90522.72;;;17.30;51.19
9935;BME280;5006;41.828;23.478;2023-05-07T02:46:17;90519.78;;;17.05;50.60
9935;BME280;5006;41.828;23.478;2023-05-07T02:47:28;90522.22;;;17.19;50.75
9935;BME280;5006;41.828;23.478;2023-05-07T02:48:34;90520.25;;;17.19;50.60
9935;BME280;5006;41.828;23.478;2023-05-07T02:49:41;90524.00;;;17.25;50.33
9935;BME280;5006;41.828;23.478;2023-05-07T02:50:46;90527.75;;;17.47;50.18
9935;BME280;5006;41.828;23.478;2023-05-07T02:51:53;90532.41;;;17.31;50.26
9935;BME280;5006;41.828;23.478;2023-05-07T02:53:01;90531.78;;;16.88;51.35
9935;BME280;5006;41.828;23.478;2023-05-07T02:54:08;90524.31;;;17.47;50.85
9935;BME280;5006;41.828;23.478;2023-05-07T02:55:13;90528.09;;;17.49;50.10
9935;BME280;5006;41.828;23.478;2023-05-07T02:56:21;90536.53;;;17.70;49.74
9935;BME280;5006;41.828;23.478;2023-05-07T02:57:26;90533.03;;;18.02;49.13
9935;BME280;5006;41.828;23.478;2023-05-07T02:58:34;90528.28;;;18.06;48.74
9935;BME280;5006;41.828;23.478;2023-05-07T02:59:41;90528.19;;;17.93;48.68
9935;BME280;5006;41.828;23.478;2023-05-07T03:00:48;90534.44;;;18.06;48.82
9935;BME280;5006;41.828;23.478;2023-05-07T03:02:01;90532.94;;;17.42;49.92
9935;BME280;5006;41.828;23.478;2023-05-07T03:03:07;90530.47;;;17.47;49.88
9935;BME280;5006;41.828;23.478;2023-05-07T03:04:12;90536.41;;;17.58;49.72
9935;BME280;5006;41.828;23.478;2023-05-07T03:05:19;90534.72;;;18.28;48.75
9935;BME280;5006;41.828;23.478;2023-05-07T03:06:24;90534.63;;;18.31;48.33
9935;BME280;5006;41.828;23.478;2023-05-07T03:07:30;90528.91;;;18.42;48.08
9935;BME280;5006;41.828;23.478;2023-05-07T03:08:35;90536.22;;;18.45;47.54
9935;BME280;5006;41.828;23.478;2023-05-07T03:09:42;90536.28;;;17.30;49.48
9935;BME280;5006;41.828;23.478;2023-05-07T03:10:47;90528.44;;;17.35;49.76
9935;BME280;5006;41.828;23.478;2023-05-07T03:11:54;90533.00;;;17.03;50.41
9935;BME280;5006;41.828;23.478;2023-05-07T03:13:01;90526.09;;;17.18;50.42
9935;BME280;5006;41.828;23.478;2023-05-07T03:14:07;90530.06;;;17.96;48.58
9935;BME280;5006;41.828;23.478;2023-05-07T03:15:13;90526.34;;;17.23;49.93
9935;BME280;5006;41.828;23.478;2023-05-07T03:16:18;90519.97;;;16.78;50.67
9935;BME280;5006;41.828;23.478;2023-05-07T03:17:24;90525.69;;;16.45;51.48
9935;BME280;5006;41.828;23.478;2023-05-07T03:18:29;90519.22;;;16.58;50.93
9935;BME280;5006;41.828;23.478;2023-05-07T03:19:35;90519.38;;;16.51;51.88
9935;BME280;5006;41.828;23.478;2023-05-07T03:20:40;90523.72;;;16.84;51.26
9935;BME280;5006;41.828;23.478;2023-05-07T03:21:46;90516.50;;;16.78;50.87
9935;BME280;5006;41.828;23.478;2023-05-07T03:22:51;90519.97;;;16.78;51.07
9935;BME280;5006;41.828;23.478;2023-05-07T03:23:57;90516.50;;;16.78;51.12
9935;BME280;5006;41.828;23.478;2023-05-07T03:25:03;90520.06;;;16.55;51.17
9935;BME280;5006;41.828;23.478;2023-05-07T03:26:10;90518.13;;;16.36;51.51
9935;BME280;5006;41.828;23.478;2023-05-07T03:27:18;90524.78;;;16.71;50.86
9935;BME280;5006;41.828;23.478;2023-05-07T03:28:23;90521.59;;;17.62;49.70
9935;BME280;5006;41.828;23.478;2023-05-07T03:29:34;90520.66;;;17.69;49.32
9935;BME280;5006;41.828;23.478;2023-05-07T03:30:39;90532.44;;;17.78;49.12
9935;BME280;5006;41.828;23.478;2023-05-07T03:31:45;90523.28;;;17.88;48.87
9935;BME280;5006;41.828;23.478;2023-05-07T03:32:50;90523.47;;;17.14;50.16
9935;BME280;5006;41.828;23.478;2023-05-07T03:33:57;90522.97;;;17.19;49.87
9935;BME280;5006;41.828;23.478;2023-05-07T03:35:03;90524.47;;;17.55;48.80
9935;BME280;5006;41.828;23.478;2023-05-07T03:36:09;90515.13;;;17.41;49.30
9935;BME280;5006;41.828;23.478;2023-05-07T03:37:15;90521.81;;;16.65;51.01
9935;BME280;5006;41.828;23.478;2023-05-07T03:38:21;90519.94;;;17.33;49.51
9935;BME280;5006;41.828;23.478;2023-05-07T03:39:28;90530.31;;;18.02;48.77
9935;BME280;5006;41.828;23.478;2023-05-07T03:40:33;90522.50;;;18.04;48.75
9935;BME280;5006;41.828;23.478;2023-05-07T03:41:40;90529.75;;;18.23;48.29
9935;BME280;5006;41.828;23.478;2023-05-07T03:42:47;90528.53;;;17.48;49.51
9935;BME280;5006;41.828;23.478;2023-05-07T03:43:54;90528.09;;;17.97;48.87
9935;BME280;5006;41.828;23.478;2023-05-07T03:44:59;90529.13;;;17.71;49.38
9935;BME280;5006;41.828;23.478;2023-05-07T03:46:06;90535.63;;;17.42;50.08
9935;BME280;5006;41.828;23.478;2023-05-07T03:47:11;90535.41;;;17.68;49.70
9935;BME280;5006;41.828;23.478;2023-05-07T03:48:17;90530.97;;;18.22;48.56
9935;BME280;5006;41.828;23.478;2023-05-07T03:49:23;90537.16;;;18.38;47.95
9935;BME280;5006;41.828;23.478;2023-05-07T03:50:29;90526.81;;;18.62;48.13
9935;BME280;5006;41.828;23.478;2023-05-07T03:51:34;90533.91;;;18.72;47.58
9935;BME280;5006;41.828;23.478;2023-05-07T03:52:43;90532.25;;;18.62;47.62
9935;BME280;5006;41.828;23.478;2023-05-07T03:53:49;90532.66;;;18.89;47.78
9935;BME280;5006;41.828;23.478;2023-05-07T03:54:57;90529.09;;;18.63;47.61
9935;BME280;5006;41.828;23.478;2023-05-07T03:56:03;90529.97;;;19.01;47.30
9935;BME280;5006;41.828;23.478;2023-05-07T03:57:13;90528.03;;;19.14;47.17
9935;BME280;5006;41.828;23.478;2023-05-07T03:58:20;90530.63;;;18.93;47.19
9935;BME280;5006;41.828;23.478;2023-05-07T03:59:26;90527.91;;;19.05;47.50
9935;BME280;5006;41.828;23.478;2023-05-07T04:00:31;90533.63;;;19.36;47.04
9935;BME280;5006;41.828;23.478;2023-05-07T04:01:39;90532.25;;;19.44;47.20
9935;BME280;5006;41.828;23.478;2023-05-07T04:02:44;90526.47;;;19.01;47.99
9935;BME280;5006;41.828;23.478;2023-05-07T04:03:50;90535.59;;;19.48;47.24
9935;BME280;5006;41.828;23.478;2023-05-07T04:04:55;90528.00;;;19.43;47.03
9935;BME280;5006;41.828;23.478;2023-05-07T04:06:02;90527.44;;;19.48;47.18
9935;BME280;5006;41.828;23.478;2023-05-07T04:07:09;90542.03;;;19.29;47.74
9935;BME280;5006;41.828;23.478;2023-05-07T04:08:19;90534.28;;;19.65;47.37
9935;BME280;5006;41.828;23.478;2023-05-07T04:09:27;90536.16;;;19.92;46.76
9935;BME280;5006;41.828;23.478;2023-05-07T04:10:35;90538.13;;;19.79;47.07
9935;BME280;5006;41.828;23.478;2023-05-07T04:11:44;90546.03;;;19.24;48.27
9935;BME280;5006;41.828;23.478;2023-05-07T04:12:50;90539.94;;;19.33;48.12
9935;BME280;5006;41.828;23.478;2023-05-07T04:14:01;90539.72;;;18.58;49.66
9935;BME280;5006;41.828;23.478;2023-05-07T04:15:07;90540.63;;;18.67;49.52
9935;BME280;5006;41.828;23.478;2023-05-07T04:16:13;90542.56;;;19.49;48.88
9935;BME280;5006;41.828;23.478;2023-05-07T04:17:19;90543.22;;;19.65;47.86
9935;BME280;5006;41.828;23.478;2023-05-07T04:18:24;90540.69;;;19.21;48.77
9935;BME280;5006;41.828;23.478;2023-05-07T04:19:30;90544.31;;;20.05;47.35
9935;BME280;5006;41.828;23.478;2023-05-07T04:20:37;90545.31;;;20.45;46.66
9935;BME280;5006;41.828;23.478;2023-05-07T04:21:47;90549.44;;;20.03;47.20
9935;BME280;5006;41.828;23.478;2023-05-07T04:22:53;90545.09;;;19.80;47.78
9935;BME280;5006;41.828;23.478;2023-05-07T04:23:58;90539.81;;;20.23;47.10
9935;BME280;5006;41.828;23.478;2023-05-07T04:25:06;90541.53;;;20.30;46.82
9935;BME280;5006;41.828;23.478;2023-05-07T04:26:15;90540.72;;;19.71;47.84
9935;BME280;5006;41.828;23.478;2023-05-07T04:27:22;90537.25;;;19.82;47.74
9935;BME280;5006;41.828;23.478;2023-05-07T04:28:29;90549.66;;;19.83;47.76
9935;BME280;5006;41.828;23.478;2023-05-07T04:29:35;90546.38;;;19.51;48.31
9935;BME280;5006;41.828;23.478;2023-05-07T04:30:41;90540.50;;;20.02;47.82
9935;BME280;5006;41.828;23.478;2023-05-07T04:31:46;90550.16;;;20.62;46.88
9935;BME280;5006;41.828;23.478;2023-05-07T04:32:52;90549.06;;;18.57;50.24
9935;BME280;5006;41.828;23.478;2023-05-07T04:33:57;90546.25;;;18.32;51.67
9935;BME280;5006;41.828;23.478;2023-05-07T04:35:04;90551.31;;;18.46;51.92
9935;BME280;5006;41.828;23.478;2023-05-07T04:36:09;90546.44;;;17.93;52.96
9935;BME280;5006;41.828;23.478;2023-05-07T04:37:22;90551.09;;;17.60;53.96
9935;BME280;5006;41.828;23.478;2023-05-07T04:38:27;90549.66;;;17.88;53.34
9935;BME280;5006;41.828;23.478;2023-05-07T04:39:33;90553.81;;;18.08;53.04
9935;BME280;5006;41.828;23.478;2023-05-07T04:40:40;90553.81;;;17.76;53.77
9935;BME280;5006;41.828;23.478;2023-05-07T04:41:48;90556.78;;;17.82;53.41
9935;BME280;5006;41.828;23.478;2023-05-07T04:42:54;90557.84;;;18.16;53.29
9935;BME280;5006;41.828;23.478;2023-05-07T04:44:00;90550.22;;;18.27;52.90
9935;BME280;5006;41.828;23.478;2023-05-07T04:45:12;90548.53;;;19.19;51.00
9935;BME280;5006;41.828;23.478;2023-05-07T04:46:19;90550.59;;;19.40;50.81
9935;BME280;5006;41.828;23.478;2023-05-07T04:47:28;90551.41;;;19.65;50.61
9935;BME280;5006;41.828;23.478;2023-05-07T04:48:33;90556.19;;;19.08;51.35
9935;BME280;5006;41.828;23.478;2023-05-07T04:49:40;90562.13;;;19.31;51.49
9935;BME280;5006;41.828;23.478;2023-05-07T04:50:48;90561.16;;;18.68;52.36
9935;BME280;5006;41.828;23.478;2023-05-07T04:51:54;90554.44;;;18.73;52.29
9935;BME280;5006;41.828;23.478;2023-05-07T04:53:01;90553.78;;;18.69;52.52
9935;BME280;5006;41.828;23.478;2023-05-07T04:54:07;90553.31;;;18.86;52.08
9935;BME280;5006;41.828;23.478;2023-05-07T04:55:12;90549.84;;;19.52;50.97
9935;BME280;5006;41.828;23.478;2023-05-07T04:56:20;90554.00;;;19.44;50.61
9935;BME280;5006;41.828;23.478;2023-05-07T04:57:26;90551.81;;;19.39;50.76
9935;BME280;5006;41.828;23.478;2023-05-07T04:58:32;90550.84;;;19.58;50.24
9935;BME280;5006;41.828;23.478;2023-05-07T04:59:38;90552.59;;;20.48;48.45
9935;BME280;5006;41.828;23.478;2023-05-07T05:00:46;90552.81;;;20.53;48.28
9935;BME280;5006;41.828;23.478;2023-05-07T05:01:51;90556.16;;;20.23;48.53
9935;BME280;5006;41.828;23.478;2023-05-07T05:02:57;90556.72;;;20.52;48.28
9935;BME280;5006;41.828;23.478;2023-05-07T05:04:03;90553.44;;;19.98;49.22
9935;BME280;5006;41.828;23.478;2023-05-07T05:05:09;90561.13;;;20.50;48.30
9935;BME280;5006;41.828;23.478;2023-05-07T05:06:14;90557.22;;;20.38;48.02
9935;BME280;5006;41.828;23.478;2023-05-07T05:07:20;90561.81;;;20.29;48.71
9935;BME280;5006;41.828;23.478;2023-05-07T05:08:25;90554.56;;;20.47;48.31
9935;BME280;5006;41.828;23.478;2023-05-07T05:09:31;90553.47;;;19.73;49.62
9935;BME280;5006;41.828;23.478;2023-05-07T05:10:36;90551.47;;;21.35;47.29
9935;BME280;5006;41.828;23.478;2023-05-07T05:11:45;90548.25;;;21.27;47.64
9935;BME280;5006;41.828;23.478;2023-05-07T05:12:49;90554.50;;;21.37;47.13
9935;BME280;5006;41.828;23.478;2023-05-07T05:13:55;90556.19;;;20.91;47.85
9935;BME280;5006;41.828;23.478;2023-05-07T05:15:01;90555.91;;;20.77;48.06
9935;BME280;5006;41.828;23.478;2023-05-07T05:16:08;90555.28;;;21.89;46.07
9935;BME280;5006;41.828;23.478;2023-05-07T05:17:13;90556.56;;;21.02;47.56
9935;BME280;5006;41.828;23.478;2023-05-07T05:18:19;90546.91;;;20.21;48.56
9935;BME280;5006;41.828;23.478;2023-05-07T05:19:25;90555.22;;;19.92;49.82
9935;BME280;5006;41.828;23.478;2023-05-07T05:20:32;90553.38;;;20.48;49.04
9935;BME280;5006;41.828;23.478;2023-05-07T05:21:37;90557.34;;;21.76;46.85
9935;BME280;5006;41.828;23.478;2023-05-07T05:22:46;90550.97;;;22.94;44.72
9935;BME280;5006;41.828;23.478;2023-05-07T05:23:52;90545.38;;;22.31;45.33
9935;BME280;5006;41.828;23.478;2023-05-07T05:25:01;90553.56;;;21.52;46.95
9935;BME280;5006;41.828;23.478;2023-05-07T05:26:06;90550.72;;;21.13;48.18
9935;BME280;5006;41.828;23.478;2023-05-07T05:27:12;90549.91;;;21.55;47.33
9935;BME280;5006;41.828;23.478;2023-05-07T05:28:17;90545.38;;;21.52;46.82
9935;BME280;5006;41.828;23.478;2023-05-07T05:29:24;90554.47;;;21.58;46.91
9935;BME280;5006;41.828;23.478;2023-05-07T05:30:29;90553.25;;;22.20;46.66
9935;BME280;5006;41.828;23.478;2023-05-07T05:31:36;90554.59;;;22.82;44.87
9935;BME280;5006;41.828;23.478;2023-05-07T05:32:41;90550.91;;;21.40;47.98
9935;BME280;5006;41.828;23.478;2023-05-07T05:33:47;90559.09;;;21.92;46.99
9935;BME280;5006;41.828;23.478;2023-05-07T05:34:52;90553.34;;;22.56;46.27
9935;BME280;5006;41.828;23.478;2023-05-07T05:35:58;90552.59;;;21.98;45.76
9935;BME280;5006;41.828;23.478;2023-05-07T05:37:03;90553.28;;;21.59;46.77
9935;BME280;5006;41.828;23.478;2023-05-07T05:38:09;90553.84;;;22.15;46.33
9935;BME280;5006;41.828;23.478;2023-05-07T05:39:14;90548.06;;;22.61;45.05
9935;BME280;5006;41.828;23.478;2023-05-07T05:40:21;90550.75;;;22.43;45.41
9935;BME280;5006;41.828;23.478;2023-05-07T05:41:26;90551.84;;;22.82;45.06
9935;BME280;5006;41.828;23.478;2023-05-07T05:42:32;90548.19;;;23.57;43.80
9935;BME280;5006;41.828;23.478;2023-05-07T05:43:37;90560.38;;;23.02;44.15
9935;BME280;5006;41.828;23.478;2023-05-07T05:44:43;90555.22;;;22.19;45.53
9935;BME280;5006;41.828;23.478;2023-05-07T05:45:49;90556.28;;;22.97;44.34
9935;BME280;5006;41.828;23.478;2023-05-07T05:46:57;90552.47;;;22.77;44.90
9935;BME280;5006;41.828;23.478;2023-05-07T05:48:05;90556.59;;;22.99;44.48
9935;BME280;5006;41.828;23.478;2023-05-07T05:49:11;90558.09;;;22.82;44.86
9935;BME280;5006;41.828;23.478;2023-05-07T05:50:17;90550.22;;;22.27;45.68
9935;BME280;5006;41.828;23.478;2023-05-07T05:51:23;90554.66;;;22.33;45.49
9935;BME280;5006;41.828;23.478;2023-05-07T05:52:28;90553.84;;;22.99;44.71
9935;BME280;5006;41.828;23.478;2023-05-07T05:53:35;90553.38;;;23.37;43.62
9935;BME280;5006;41.828;23.478;2023-05-07T05:54:41;90555.69;;;23.20;44.03
9935;BME280;5006;41.828;23.478;2023-05-07T05:55:47;90561.28;;;23.53;43.52
9935;BME280;5006;41.828;23.478;2023-05-07T05:56:53;90550.88;;;23.75;43.21